Aviation Digital Data Service (ADDS)

Output produced by METARs form (2257 UTC 16 January 2018)
found at http://www.aviationweather.gov/adds/metars/
 
KTHV 162253Z AUTO 30003KT 6SM BR OVC048 00/M01 A3035 RMK AO2 SLP285 T00001011
KTHV 162153Z AUTO 00000KT 9SM OVC048 01/M02 A3035 RMK AO2 SLP287 T00061022
KTHV 162053Z AUTO 00000KT 8SM BKN050 OVC070 01/M03 A3035 RMK AO2 SLP285 T00061028 56013
KTHV 161953Z AUTO 00000KT 7SM OVC060 01/M03 A3036 RMK AO2 SLP289 T00061028
KTHV 161853Z AUTO 00000KT 6SM BR BKN065 OVC080 00/M02 A3037 RMK AO2 SLP294 T00001022
KTHV 161753Z AUTO 00000KT 6SM BR OVC060 M01/M03 A3039 RMK AO2 SLP299 60000 T10061028 10000 21028 58022
KTHV 161653Z AUTO 00000KT 5SM BR OVC070 M01/M03 A3042 RMK AO2 SLP311 T10061028
KTHV 161632Z AUTO 19004KT 5SM BR SCT012 OVC070 M01/M03 A3043 RMK AO2 T10061028
KTHV 161553Z AUTO 16005KT 5SM BR OVC010 M01/M02 A3044 RMK AO2 SLP318 T10061022
KTHV 161545Z AUTO 14005KT 5SM BR OVC010 M01/M02 A3045 RMK AO2 CIG 008V013 T10111022
KTHV 161510Z AUTO VRB03KT 4SM BR OVC008 M02/M02 A3045 RMK AO2 T10171022
KTHV 161453Z AUTO 16003KT 4SM BR OVC007 M02/M02 A3046 RMK AO2 SLP323 60000 T10171022 51002
KTHV 161430Z AUTO 19004KT 4SM BR OVC008 M02/M03 A3046 RMK AO2 CIG 007V012 T10171028
KTHV 161420Z AUTO 19004KT 4SM BR OVC007 M02/M03 A3046 RMK AO2 CIG 007V012 T10171028
KTHV 161353Z AUTO 00000KT 5SM BR OVC008 M02/M02 A3046 RMK AO2 SLP323 T10221022
KTHV 161319Z AUTO 00000KT 4SM BR BKN009 OVC055 M02/M03 A3045 RMK AO2 T10221028
KTHV 161305Z AUTO 00000KT 3SM BR FEW009 BKN055 OVC070 M02/M03 A3045 RMK AO2 T10221028
KTHV 161253Z AUTO 00000KT 2 1/2SM BR FEW011 BKN050 OVC070 M02/M03 A3045 RMK AO2 SNE47 SLP320 P0000 T10221028
KTHV 161249Z AUTO 00000KT 2SM BR FEW011 BKN049 OVC070 M03/M03 A3045 RMK AO2 SNE47 P0000
KTHV 161235Z AUTO 00000KT 2 1/2SM -SN BR BKN049 OVC070 M03/M03 A3044 RMK AO2 P0000 T10281028
KTHV 161228Z AUTO 13003KT 2SM -SN BR OVC047 M03/M03 A3044 RMK AO2 P0000 T10281028
KTHV 161218Z AUTO 14003KT 2 1/2SM -SN BR OVC043 M03/M03 A3044 RMK AO2 P0000 T10281028
KTHV 161203Z AUTO 12003KT 2SM -SN BR OVC035 M03/M03 A3044 RMK AO2 P0000 T10281028
KTHV 161153Z AUTO 14003KT 1 3/4SM -SN BR FEW012 OVC029 M03/M03 A3044 RMK AO2 SLP317 P0000 60000 T10281028 11022 21033 51005
KTHV 161102Z AUTO 14004KT 1 1/4SM -SN BR OVC024 M03/M03 A3043 RMK AO2 P0000 T10281028
KTHV 161053Z AUTO 14004KT 1SM -SN BR OVC022 M03/M03 A3043 RMK AO2 SNB0955 SLP315 P0000 T10281028
KTHV 161044Z AUTO 13005KT 1 1/4SM -SN BR OVC026 M03/M03 A3043 RMK AO2 SNB0955 P0000 T10281028
KTHV 161035Z AUTO 13004KT 1 3/4SM -SN BR OVC030 M02/M03 A3043 RMK AO2 SNB0955 P0000 T10221028
KTHV 161021Z AUTO 12004KT 2SM -SN BR FEW008 SCT012 OVC032 M02/M03 A3042 RMK AO2 SNB0955 P0000 T10221028
KTHV 161011Z AUTO 15005KT 2SM -SN BR BKN012 OVC030 M02/M03 A3042 RMK AO2 SNB0955 P0000 T10221033
KTHV 160953Z AUTO 00000KT 5SM BR OVC012 M02/M03 A3043 RMK AO2 SNB12E29 SLP314 P0000 T10221033
KTHV 160853Z AUTO 00000KT 6SM BR OVC013 M02/M03 A3042 RMK AO2 SLP311 T10221033 58001
KTHV 160844Z AUTO 00000KT 6SM BR OVC013 M02/M03 A3042 RMK AO2 T10221033
KTHV 160753Z AUTO 00000KT 6SM BR OVC020 M03/M03 A3042 RMK AO2 SLP312 T10281033
KTHV 160653Z AUTO VRB03KT 6SM BR FEW012 OVC019 M03/M04 A3042 RMK AO2 SLP312 T10281044
KTHV 160640Z AUTO 00000KT 8SM SCT011 OVC018 M03/M05 A3043 RMK AO2 T10281050
KTHV 160553Z AUTO 12003KT 10SM OVC013 M03/M06 A3042 RMK AO2 SLP313 T10331061 11033 21044 58009
KTHV 160515Z AUTO 00000KT 10SM OVC013 M03/M07 A3044 RMK AO2 T10331067
KTHV 160453Z AUTO 11003KT 10SM OVC016 M04/M07 A3044 RMK AO2 SLP319 T10391067 410331150
KTHV 160353Z AUTO 00000KT 10SM OVC016 M04/M07 A3047 RMK AO2 SLP327 T10391072
KTHV 160253Z AUTO 10003KT 10SM OVC017 M04/M07 A3045 RMK AO2 SLP322 T10391072 58007
KTHV 160153Z AUTO 13003KT 10SM OVC019 M04/M08 A3046 RMK AO2 SLP325 T10391078
KTHV 160053Z AUTO 03003KT 10SM OVC019 M04/M08 A3048 RMK AO2 SLP331 T10391078
KTHV 152353Z AUTO 07004KT 10SM BKN021 OVC028 M04/M08 A3047 RMK AO2 SLP330 T10391083 11039 21061 50002
KTHV 152253Z AUTO 00000KT 10SM BKN020 OVC027 M04/M08 A3048 RMK AO2 SLP334 T10441083
KTHV 152153Z AUTO 10004KT 10SM OVC019 M04/M09 A3048 RMK AO2 SLP333 T10441089
KTHV 152053Z AUTO 08003KT 10SM OVC019 M04/M09 A3047 RMK AO2 SLP328 T10441089 56021
KTHV 151953Z AUTO 10004KT 10SM OVC018 M05/M09 A3047 RMK AO2 SLP331 T10501094
KTHV 151853Z AUTO 05005KT 10SM OVC018 M06/M10 A3048 RMK AO2 SLP335 T10561100
KTHV 151753Z AUTO VRB03KT 10SM OVC018 M06/M11 A3053 RMK AO2 SLP351 T10611106 11056 21150 56020
KTHV 151653Z AUTO 10SM BKN017 OVC031 M06/M11 A3056 RMK AO2 SLP359 T10611111
KTHV 151651Z AUTO 10SM BKN017 OVC031 M06/M11 A3056 RMK AO2
KTHV 151638Z AUTO 06004KT 10SM FEW017 OVC031 M07/M11 A3057 RMK AO2 T10671111
KTHV 151553Z AUTO 06004KT 10SM OVC025 M08/M12 A3059 RMK AO2 SLP371 T10781122
KTHV 151453Z AUTO 02003KT 10SM OVC023 M09/M12 A3061 RMK AO2 SLP377 T10891122 51008
KTHV 151411Z AUTO 05005KT 10SM BKN025 M09/M13 A3060 RMK AO2 T10941133
KTHV 151353Z AUTO 04003KT 10SM CLR M10/M13 A3060 RMK AO2 SLP374 T11001133
KTHV 151253Z AUTO 00000KT 10SM CLR M14/M14 A3059 RMK AO2 SLP373 T11391144
KTHV 151153Z AUTO 00000KT 10SM CLR M14/M15 A3058 RMK AO2 SLP370 I1000 I6000 T11441150 11122 21144 58005